createdAt,value
2023-08-10T06:16:33.671Z,50.46
2023-08-10T06:19:06.336Z,50.27
2023-08-10T06:21:38.881Z,49.66
2023-08-10T06:24:11.346Z,49.15
2023-08-10T06:26:44.051Z,48.70
2023-08-10T06:29:16.642Z,47.53
2023-08-10T06:31:49.461Z,47.53
2023-08-10T06:34:21.955Z,46.95
2023-08-10T06:36:54.380Z,46.58
2023-08-10T06:39:28.406Z,45.82
2023-08-10T06:42:02.069Z,45.68
2023-08-10T06:44:34.823Z,45.06
2023-08-10T06:49:50.368Z,44.67
2023-08-10T06:52:22.766Z,44.23
2023-08-10T06:54:55.247Z,42.58
2023-08-10T06:57:27.925Z,41.59
2023-08-10T07:00:33.780Z,41.83
2023-08-10T07:02:35.615Z,41.38
2023-08-10T07:05:09.153Z,41.16
2023-08-10T07:07:41.697Z,40.75
2023-08-10T07:10:15.929Z,40.23
2023-08-10T07:12:48.649Z,40.12
2023-08-10T07:15:21.409Z,39.71
2023-08-10T07:17:54.145Z,38.49
2023-08-10T07:20:26.738Z,38.52
2023-08-10T07:22:59.526Z,37.83
2023-08-10T07:25:33.940Z,37.72
2023-08-10T07:28:07.706Z,37.38
2023-08-10T07:30:40.598Z,37.15
2023-08-10T07:33:13.429Z,36.95
2023-08-10T07:35:47.103Z,37.01
2023-08-10T07:38:19.748Z,36.64
2023-08-10T07:40:52.174Z,36.50
2023-08-10T07:43:26.108Z,35.77
2023-08-10T07:45:59.579Z,35.82
2023-08-10T07:48:31.892Z,34.92
2023-08-10T07:51:04.872Z,34.47
2023-08-10T07:53:39.211Z,34.26
2023-08-10T07:56:12.816Z,33.58
2023-08-10T07:58:45.358Z,34.06
2023-08-10T08:01:18.034Z,34.11
2023-08-10T08:03:50.504Z,34.20
2023-08-10T08:06:23.741Z,34.78
2023-08-10T08:08:56.226Z,34.87
2023-08-10T08:11:30.171Z,34.86
2023-08-10T08:14:03.237Z,34.81
2023-08-10T08:16:36.756Z,34.57
2023-08-10T08:19:09.427Z,34.62
2023-08-10T08:21:42.763Z,33.69
2023-08-10T08:24:16.002Z,33.17
2023-08-10T08:26:48.628Z,33.29
2023-08-10T08:29:21.751Z,33.17
2023-08-10T08:31:57.034Z,32.81
2023-08-10T08:34:29.189Z,32.85
2023-08-10T08:37:02.151Z,32.45
2023-08-10T08:39:35.173Z,32.87
2023-08-10T08:42:07.987Z,32.30
2023-08-10T08:44:40.765Z,32.70
2023-08-10T08:47:13.909Z,31.82
2023-08-10T08:49:47.126Z,31.86
2023-08-10T08:52:19.632Z,31.19
2023-08-10T08:54:52.556Z,31.38
2023-08-10T08:57:25.841Z,31.38
2023-08-10T09:00:10.160Z,30.51
2023-08-10T09:02:43.250Z,30.26
2023-08-10T09:05:16.105Z,30.01
2023-08-10T09:07:50.151Z,29.79
2023-08-10T09:10:23.382Z,29.44
2023-08-10T09:12:56.241Z,29.58
2023-08-10T09:15:29.457Z,30.08
2023-08-10T09:18:02.423Z,31.05
2023-08-10T09:20:35.217Z,31.55
2023-08-10T09:23:07.866Z,30.96
2023-08-10T09:25:44.370Z,30.83
2023-08-10T09:28:17.370Z,29.71
2023-08-10T09:30:52.331Z,28.45
2023-08-10T09:33:34.264Z,28.47
2023-08-10T09:36:09.955Z,28.21
2023-08-10T09:38:46.711Z,28.06
2023-08-10T09:41:22.453Z,27.88
2023-08-10T09:43:55.177Z,27.78
2023-08-10T09:46:29.915Z,27.60
2023-08-10T09:49:02.806Z,27.49
2023-08-10T09:51:40.031Z,27.22
2023-08-10T09:54:12.621Z,27.09
2023-08-10T09:56:45.180Z,27.26
2023-08-10T09:59:17.965Z,27.06
2023-08-10T10:01:50.537Z,27.34
2023-08-10T10:04:24.208Z,27.56
2023-08-10T10:06:58.400Z,27.63
2023-08-10T10:09:31.318Z,28.06
2023-08-10T10:12:05.203Z,28.47
2023-08-10T10:14:48.950Z,28.39
2023-08-10T10:17:22.926Z,28.86
2023-08-10T10:19:55.679Z,28.86
2023-08-10T10:22:28.321Z,28.89
2023-08-10T10:25:01.891Z,28.93
2023-08-10T10:27:42.533Z,29.52
2023-08-10T10:30:18.783Z,29.85
2023-08-10T10:32:54.782Z,29.71
2023-08-10T10:35:34.772Z,29.22
2023-08-10T10:38:08.847Z,29.27
2023-08-10T10:40:41.504Z,29.69
2023-08-10T10:43:15.787Z,29.05
2023-08-10T10:45:50.130Z,28.56
2023-08-10T10:48:23.577Z,29.36
2023-08-10T10:50:57.090Z,29.17
2023-08-10T10:53:30.120Z,29.18
2023-08-10T10:56:02.737Z,29.31
2023-08-10T10:58:35.767Z,28.67
2023-08-10T11:01:08.576Z,28.51
2023-08-10T11:03:43.041Z,28.46
2023-08-10T11:06:16.526Z,28.84
2023-08-10T11:08:54.996Z,28.74
2023-08-10T11:11:27.649Z,28.51
2023-08-10T11:14:00.253Z,28.73
2023-08-10T11:16:58.098Z,28.82
2023-08-10T11:19:32.349Z,29.28
2023-08-10T11:22:05.995Z,28.88
2023-08-10T11:24:39.811Z,28.41
2023-08-10T11:27:12.299Z,28.21
2023-08-10T11:29:45.611Z,28.21
2023-08-10T11:32:20.434Z,28.49
2023-08-10T11:34:55.002Z,28.33
2023-08-10T11:37:32.718Z,28.46
2023-08-10T11:40:20.373Z,28.20
2023-08-10T11:43:11.577Z,28.47
2023-08-10T11:45:44.466Z,28.48
2023-08-10T11:48:21.811Z,28.82
2023-08-10T11:51:02.706Z,28.92
2023-08-10T11:53:40.834Z,29.39
2023-08-10T11:56:13.988Z,29.49
2023-08-10T11:58:46.682Z,29.62
2023-08-10T12:01:20.270Z,29.43
2023-08-10T12:03:57.228Z,29.46
2023-08-10T12:06:28.223Z,29.18
2023-08-10T12:09:00.927Z,28.60
2023-08-10T12:11:34.121Z,28.46
2023-08-10T12:14:10.664Z,27.99
2023-08-10T12:16:43.602Z,28.28
2023-08-10T12:19:17.620Z,27.83
2023-08-10T12:21:50.104Z,27.61
2023-08-10T12:24:22.686Z,27.28
2023-08-10T12:26:55.213Z,27.14
2023-08-10T12:29:27.697Z,27.31
2023-08-10T12:32:01.784Z,27.33
2023-08-10T12:34:34.295Z,27.19
2023-08-10T12:37:07.136Z,27.22
2023-08-10T12:39:39.707Z,26.63
2023-08-10T12:42:12.554Z,26.46
2023-08-10T12:44:45.222Z,26.50
2023-08-10T12:49:50.701Z,27.04
2023-08-10T12:52:23.322Z,27.38
2023-08-10T12:54:56.144Z,26.85
2023-08-10T12:57:29.224Z,27.17
2023-08-10T13:00:04.049Z,27.22
2023-08-10T13:02:38.477Z,27.42
2023-08-10T13:05:11.407Z,27.53
2023-08-10T13:07:45.530Z,27.59
2023-08-10T13:10:17.940Z,27.99
2023-08-10T13:12:50.406Z,27.71
2023-08-10T13:15:22.933Z,28.12
2023-08-10T13:17:55.617Z,28.36
2023-08-10T13:20:28.526Z,28.79
2023-08-10T13:23:01.226Z,28.68
2023-08-10T13:25:33.820Z,29.03
2023-08-10T13:28:06.960Z,29.68
2023-08-10T13:30:39.589Z,29.82
2023-08-10T13:33:12.141Z,30.13
2023-08-10T13:35:44.782Z,30.27
2023-08-10T13:38:17.519Z,30.40
2023-08-10T13:40:50.445Z,30.55
2023-08-10T13:43:23.133Z,30.76
2023-08-10T13:45:55.768Z,30.94
2023-08-10T13:48:28.815Z,31.43
2023-08-10T13:51:01.656Z,31.54
2023-08-10T13:53:34.667Z,31.62
2023-08-10T13:56:07.155Z,31.86
2023-08-10T13:58:39.572Z,32.22
2023-08-10T14:01:12.590Z,32.51
2023-08-10T14:03:45.378Z,32.61
2023-08-10T14:06:18.257Z,32.38
2023-08-10T14:08:51.299Z,32.98
2023-08-10T14:11:24.025Z,33.53
2023-08-10T14:13:56.684Z,34.13
2023-08-10T14:16:29.565Z,34.78
2023-08-10T14:19:02.126Z,34.85
2023-08-10T14:21:35.613Z,35.11
2023-08-10T14:24:08.963Z,35.44
2023-08-10T14:26:41.673Z,35.37
2023-08-10T14:29:14.310Z,35.28
2023-08-10T14:31:46.931Z,35.19
2023-08-10T14:34:19.577Z,35.47
2023-08-10T14:36:52.318Z,36.27
2023-08-10T14:39:24.828Z,36.32
2023-08-10T14:41:57.331Z,36.23
2023-08-10T14:44:29.791Z,36.30
2023-08-10T14:47:03.687Z,36.47
2023-08-10T14:49:36.217Z,36.50
2023-08-10T14:52:08.799Z,36.42
2023-08-10T14:54:41.828Z,36.75
2023-08-10T14:57:16.186Z,36.54
2023-08-10T14:59:48.940Z,37.10
2023-08-10T15:02:21.366Z,37.38
2023-08-10T15:04:55.251Z,37.48
2023-08-10T15:07:29.261Z,37.80
2023-08-10T15:10:01.818Z,38.27
2023-08-10T15:12:36.449Z,38.76
2023-08-10T15:15:10.050Z,38.54
2023-08-10T15:17:43.037Z,38.74
2023-08-10T15:20:19.590Z,38.89
2023-08-10T15:22:51.439Z,39.16
2023-08-10T15:25:24.047Z,39.42
2023-08-10T15:27:56.634Z,39.72
2023-08-10T15:30:29.343Z,39.25
2023-08-10T15:33:02.342Z,39.45
2023-08-10T15:35:35.419Z,39.55
2023-08-10T15:38:07.783Z,39.44
2023-08-10T15:40:40.438Z,39.08
2023-08-10T15:43:12.985Z,39.49
2023-08-10T15:45:45.390Z,39.20
2023-08-10T15:48:18.019Z,39.68
2023-08-10T15:50:50.480Z,39.56
2023-08-10T15:53:22.986Z,39.76
2023-08-10T15:55:55.432Z,39.62
2023-08-10T15:58:27.938Z,39.65
2023-08-10T16:01:00.734Z,40.11
2023-08-10T16:03:35.266Z,40.42
2023-08-10T16:06:07.074Z,40.50
2023-08-10T16:08:39.421Z,40.95
2023-08-10T16:11:12.642Z,41.36
2023-08-10T16:13:45.407Z,41.62
2023-08-10T16:16:17.807Z,41.75
2023-08-10T16:18:51.125Z,42.24
2023-08-10T16:21:23.909Z,42.34
2023-08-10T16:23:56.524Z,42.61
2023-08-10T16:26:29.059Z,42.97
2023-08-10T16:29:02.147Z,43.10
2023-08-10T16:31:35.167Z,43.62
2023-08-10T16:34:09.433Z,43.98
2023-08-10T16:36:42.455Z,44.77
2023-08-10T16:39:15.064Z,45.42
2023-08-10T16:41:47.647Z,46.09
2023-08-10T16:44:20.362Z,46.31
2023-08-10T16:46:53.340Z,46.00
2023-08-10T16:49:25.825Z,46.32
2023-08-10T16:51:59.392Z,46.32
2023-08-10T16:54:31.743Z,46.79
2023-08-10T16:57:04.198Z,46.82
2023-08-10T16:59:36.668Z,47.00
2023-08-10T17:02:10.042Z,47.27
2023-08-10T17:04:43.296Z,47.82
2023-08-10T17:07:16.352Z,47.74
2023-08-10T17:09:48.703Z,48.16
2023-08-10T17:12:21.119Z,48.34
2023-08-10T17:14:54.306Z,48.34
2023-08-10T17:17:26.570Z,48.47
2023-08-10T17:19:59.018Z,48.51
2023-08-10T17:22:31.755Z,48.82
2023-08-10T17:25:05.018Z,49.31
2023-08-10T17:27:38.112Z,49.31
2023-08-10T17:30:11.775Z,49.42
2023-08-10T17:32:44.434Z,49.38
2023-08-10T17:35:16.981Z,49.26
2023-08-10T17:37:50.127Z,49.21
2023-08-10T17:40:22.734Z,49.16
2023-08-10T17:42:55.154Z,49.53
2023-08-10T17:45:27.650Z,49.53
2023-08-10T17:48:00.181Z,49.70
2023-08-10T17:50:32.732Z,50.15
2023-08-10T17:53:05.325Z,50.10
2023-08-10T17:55:38.661Z,49.82
2023-08-10T17:58:11.372Z,50.24
2023-08-10T18:00:45.640Z,50.25
2023-08-10T18:03:19.245Z,50.13
2023-08-10T18:05:51.605Z,50.27
2023-08-10T18:08:24.209Z,50.45
2023-08-10T18:10:56.796Z,50.87
2023-08-10T18:13:29.409Z,50.49
2023-08-10T18:21:26.025Z,50.83
2023-08-10T18:23:59.356Z,50.90
2023-08-10T18:26:32.611Z,51.36
2023-08-10T18:29:05.202Z,51.23
2023-08-10T18:31:37.676Z,51.33
2023-08-10T18:34:10.327Z,51.06
2023-08-10T18:36:43.209Z,51.43
2023-08-10T18:39:15.627Z,51.39
2023-08-10T18:41:48.252Z,51.34
2023-08-10T18:44:24.636Z,51.76
2023-08-10T18:46:56.784Z,52.00
2023-08-10T18:49:29.269Z,52.67
2023-08-10T18:52:02.120Z,52.76
2023-08-10T18:54:35.531Z,52.74
2023-08-10T18:57:08.232Z,52.79
2023-08-10T18:59:41.007Z,52.55
2023-08-10T19:02:14.845Z,52.67
2023-08-10T19:04:49.203Z,52.98
2023-08-10T19:07:21.709Z,53.34
2023-08-10T19:09:54.466Z,53.40
2023-08-10T19:12:27.466Z,53.09
2023-08-10T19:15:00.387Z,53.04
2023-08-10T19:17:33.582Z,53.30
2023-08-10T19:20:06.960Z,53.83
2023-08-10T19:22:39.729Z,53.47
2023-08-10T19:25:14.108Z,53.36
2023-08-10T19:27:47.551Z,54.06
2023-08-10T19:30:22.485Z,54.23
2023-08-10T19:32:55.425Z,54.57
2023-08-10T19:35:28.081Z,54.58
2023-08-10T19:38:00.897Z,54.46
2023-08-10T19:40:34.813Z,54.96
2023-08-10T19:43:07.535Z,55.02
2023-08-10T19:45:40.193Z,55.20
2023-08-10T19:48:13.357Z,55.03
2023-08-10T19:50:46.982Z,55.43
2023-08-10T19:53:20.685Z,55.60
2023-08-10T19:55:53.896Z,55.48
2023-08-10T19:58:29.574Z,55.73
2023-08-10T20:01:06.481Z,56.10
2023-08-10T20:03:38.971Z,56.20
2023-08-10T20:06:12.946Z,56.54
2023-08-10T20:08:45.235Z,56.43
2023-08-10T20:11:17.708Z,56.57
2023-08-10T20:13:50.553Z,56.73
2023-08-10T20:16:25.207Z,57.03
2023-08-10T20:18:57.633Z,57.23
2023-08-10T20:21:31.068Z,57.30
2023-08-10T20:24:05.519Z,57.19
2023-08-10T20:26:38.300Z,57.49
2023-08-10T20:29:10.791Z,57.86
2023-08-10T20:31:43.546Z,57.88
2023-08-10T20:34:16.416Z,58.13
2023-08-10T20:36:49.469Z,57.72
2023-08-10T20:39:21.825Z,57.92
2023-08-10T20:41:54.725Z,58.07
2023-08-10T20:44:27.279Z,58.13
2023-08-10T20:46:59.678Z,57.85
2023-08-10T20:49:32.438Z,57.93
2023-08-10T20:52:05.491Z,58.05
2023-08-10T20:54:39.124Z,58.05
2023-08-10T20:57:11.843Z,57.89
2023-08-10T20:59:44.278Z,57.79
2023-08-10T21:02:17.665Z,58.07
2023-08-10T21:04:50.530Z,57.57
2023-08-10T21:07:23.659Z,57.76
2023-08-10T21:09:56.525Z,57.93
2023-08-10T21:12:28.937Z,57.68
2023-08-10T21:15:03.271Z,58.01
2023-08-10T21:17:39.212Z,57.86
2023-08-10T21:20:11.973Z,57.83
2023-08-10T21:22:44.892Z,57.93
2023-08-10T21:25:17.827Z,57.88
2023-08-10T21:27:50.296Z,57.84
2023-08-10T21:30:22.980Z,57.46
2023-08-10T21:32:55.591Z,57.40
2023-08-10T21:35:28.158Z,57.37
2023-08-10T21:38:00.838Z,57.46
2023-08-10T21:40:33.701Z,57.07
2023-08-10T21:43:06.520Z,56.55
2023-08-10T21:45:39.052Z,56.48
2023-08-10T21:48:11.691Z,56.59
2023-08-10T21:50:44.044Z,56.32
2023-08-10T21:53:16.686Z,56.73
2023-08-10T21:55:49.412Z,56.94
2023-08-10T21:58:21.890Z,57.11
2023-08-10T22:00:55.412Z,57.05
2023-08-10T22:03:28.478Z,57.04
2023-08-10T22:06:01.733Z,57.44
2023-08-10T22:08:34.570Z,57.50
2023-08-10T22:11:07.851Z,57.53
2023-08-10T22:13:40.245Z,57.73
2023-08-10T22:16:12.670Z,57.78
2023-08-10T22:18:45.078Z,57.86
2023-08-10T22:21:18.386Z,58.01
2023-08-10T22:23:50.697Z,57.97
2023-08-10T22:26:23.221Z,58.20
2023-08-10T22:28:55.946Z,58.11
2023-08-10T22:31:30.088Z,58.13
2023-08-10T22:34:02.502Z,58.19
2023-08-10T22:36:35.089Z,57.69
2023-08-10T22:39:08.915Z,57.55
2023-08-10T22:41:41.527Z,57.52
2023-08-10T22:44:14.291Z,57.80
2023-08-10T22:46:46.980Z,58.06
2023-08-10T22:49:19.516Z,57.80
2023-08-10T22:51:53.109Z,57.53
2023-08-10T22:54:25.602Z,57.40
2023-08-10T22:56:58.166Z,57.16
2023-08-10T22:59:30.740Z,56.94
2023-08-10T23:02:03.427Z,57.20
2023-08-10T23:04:35.878Z,57.24
2023-08-10T23:07:08.467Z,57.58
2023-08-10T23:09:42.276Z,58.08
2023-08-10T23:12:14.834Z,58.36
2023-08-10T23:14:49.057Z,58.20
2023-08-10T23:17:21.427Z,58.25
2023-08-10T23:19:53.735Z,58.46
2023-08-10T23:22:26.328Z,58.42
2023-08-10T23:24:58.866Z,58.54
2023-08-10T23:27:31.674Z,58.45
2023-08-10T23:30:05.616Z,58.50
2023-08-10T23:32:38.662Z,58.51
2023-08-10T23:35:11.731Z,58.51
2023-08-10T23:37:44.607Z,58.40
2023-08-10T23:40:17.477Z,58.43
2023-08-10T23:42:49.984Z,58.45
2023-08-10T23:45:22.877Z,58.33
2023-08-10T23:47:55.495Z,58.06
2023-08-10T23:50:27.988Z,58.01
2023-08-10T23:53:01.615Z,58.39
2023-08-10T23:55:34.193Z,58.44
2023-08-10T23:58:06.932Z,58.20
